createdAt,value
2024-01-07T00:02:25.403Z,6.04
2024-01-07T00:04:53.425Z,6.31
2024-01-07T00:07:22.007Z,5.95
2024-01-07T00:09:50.091Z,5.80
2024-01-07T00:12:18.426Z,6.04
2024-01-07T00:14:46.311Z,5.53
2024-01-07T00:17:14.301Z,5.67
2024-01-07T00:19:42.997Z,5.62
2024-01-07T00:22:11.073Z,5.69
2024-01-07T00:24:39.015Z,5.69
2024-01-07T00:27:07.070Z,6.19
2024-01-07T00:29:36.740Z,5.67
2024-01-07T00:32:04.948Z,5.60
2024-01-07T00:34:34.129Z,5.76
2024-01-07T00:37:02.273Z,5.69
2024-01-07T00:39:30.219Z,5.57
2024-01-07T00:41:58.265Z,5.59
2024-01-07T00:44:26.253Z,5.69
2024-01-07T00:46:54.164Z,5.89
2024-01-07T00:49:22.369Z,6.06
2024-01-07T00:51:50.330Z,5.61
2024-01-07T00:54:18.241Z,5.45
2024-01-07T00:56:46.895Z,5.72
2024-01-07T00:59:14.833Z,6.51
2024-01-07T01:01:43.042Z,6.74
2024-01-07T01:04:11.288Z,6.67
2024-01-07T01:06:39.316Z,6.42
2024-01-07T01:09:07.408Z,6.32
2024-01-07T01:11:35.467Z,6.89
2024-01-07T01:14:03.405Z,6.89
2024-01-07T01:16:31.295Z,6.43
2024-01-07T01:18:59.411Z,6.95
2024-01-07T01:21:27.346Z,6.59
2024-01-07T01:23:55.882Z,6.99
2024-01-07T01:26:23.984Z,6.69
2024-01-07T01:28:51.860Z,6.69
2024-01-07T01:31:19.822Z,6.65
2024-01-07T01:33:48.163Z,6.03
2024-01-07T01:36:16.099Z,6.14
2024-01-07T01:38:44.110Z,6.28
2024-01-07T01:41:12.144Z,6.68
2024-01-07T01:43:40.024Z,6.51
2024-01-07T01:46:08.273Z,5.58
2024-01-07T01:48:39.360Z,5.56
2024-01-07T01:51:07.983Z,5.67
2024-01-07T01:53:36.222Z,5.15
2024-01-07T01:56:04.804Z,5.45
2024-01-07T01:58:33.923Z,5.47
2024-01-07T02:01:02.134Z,5.55
2024-01-07T02:03:30.268Z,6.06
2024-01-07T02:05:59.053Z,5.69
2024-01-07T02:08:27.974Z,6.00
2024-01-07T02:10:55.891Z,5.63
2024-01-07T02:13:23.815Z,5.57
2024-01-07T02:15:51.871Z,5.84
2024-01-07T02:18:19.820Z,5.70
2024-01-07T02:20:47.979Z,5.63
2024-01-07T02:23:16.241Z,5.70
2024-01-07T02:25:44.242Z,5.38
2024-01-07T02:28:12.285Z,5.05
2024-01-07T02:30:40.440Z,5.28
2024-01-07T02:33:08.580Z,5.16
2024-01-07T02:35:37.536Z,5.30
2024-01-07T02:38:05.534Z,5.27
2024-01-07T02:40:33.510Z,5.06
2024-01-07T02:43:01.512Z,5.17
2024-01-07T02:45:30.002Z,5.23
2024-01-07T02:47:58.191Z,5.28
2024-01-07T02:50:26.214Z,5.09
2024-01-07T02:52:54.219Z,5.09
2024-01-07T02:55:22.153Z,4.81
2024-01-07T02:57:50.048Z,5.11
2024-01-07T03:00:18.392Z,5.32
2024-01-07T03:02:46.445Z,5.19
2024-01-07T03:05:14.514Z,5.47
2024-01-07T03:07:42.528Z,5.49
2024-01-07T03:10:10.680Z,5.54
2024-01-07T03:12:38.761Z,5.65
2024-01-07T03:15:08.484Z,5.67
2024-01-07T03:17:37.149Z,5.51
2024-01-07T03:20:05.478Z,5.51
2024-01-07T03:22:33.624Z,5.58
2024-01-07T03:25:01.653Z,5.69
2024-01-07T03:27:29.711Z,5.73
2024-01-07T03:29:57.780Z,5.57
2024-01-07T03:32:25.660Z,5.82
2024-01-07T03:34:54.917Z,5.92
2024-01-07T03:37:22.889Z,6.17
2024-01-07T03:39:50.863Z,5.92
2024-01-07T03:42:19.101Z,5.96
2024-01-07T03:44:46.986Z,6.12
2024-01-07T03:47:15.077Z,6.38
2024-01-07T03:49:43.205Z,5.96
2024-01-07T03:52:11.207Z,6.14
2024-01-07T03:54:39.122Z,6.19
2024-01-07T03:57:07.166Z,6.25
2024-01-07T03:59:35.175Z,6.22
2024-01-07T04:02:03.443Z,6.34
2024-01-07T04:04:31.578Z,6.34
2024-01-07T04:06:59.577Z,6.49
2024-01-07T04:09:27.670Z,6.79
2024-01-07T04:11:55.679Z,6.67
2024-01-07T04:14:23.629Z,6.61
2024-01-07T04:16:51.655Z,6.63
2024-01-07T04:19:19.682Z,7.17
2024-01-07T04:21:47.845Z,6.67
2024-01-07T04:24:16.032Z,6.68
2024-01-07T04:26:43.912Z,6.94
2024-01-07T04:29:11.811Z,6.42
2024-01-07T04:31:39.928Z,6.71
2024-01-07T04:34:08.033Z,6.89
2024-01-07T04:36:36.209Z,7.49
2024-01-07T04:39:04.313Z,7.60
2024-01-07T04:41:32.194Z,7.47
2024-01-07T04:44:00.191Z,7.17
2024-01-07T04:46:28.240Z,7.35
2024-01-07T04:48:56.998Z,7.18
2024-01-07T04:51:24.975Z,7.31
2024-01-07T04:53:52.979Z,7.46
2024-01-07T04:56:21.455Z,7.11
2024-01-07T04:58:49.349Z,7.11
2024-01-07T05:01:17.590Z,7.15
2024-01-07T05:03:45.650Z,7.19
2024-01-07T05:06:13.735Z,7.32
2024-01-07T05:08:42.744Z,7.00
2024-01-07T05:11:10.815Z,7.22
2024-01-07T05:13:38.828Z,6.94
2024-01-07T05:16:07.201Z,6.30
2024-01-07T05:18:35.266Z,6.98
2024-01-07T05:21:03.273Z,6.91
2024-01-07T05:23:31.319Z,6.94
2024-01-07T05:26:00.987Z,7.01
2024-01-07T05:28:29.013Z,7.15
2024-01-07T05:30:57.157Z,6.91
2024-01-07T05:33:25.199Z,6.65
2024-01-07T05:35:53.418Z,6.74
2024-01-07T05:38:21.560Z,6.72
2024-01-07T05:40:49.454Z,7.11
2024-01-07T05:43:17.465Z,7.34
2024-01-07T05:45:45.439Z,6.93
2024-01-07T05:48:13.394Z,6.68
2024-01-07T05:50:41.730Z,6.49
2024-01-07T05:53:09.706Z,7.05
2024-01-07T05:55:37.640Z,6.71
2024-01-07T05:58:05.973Z,6.44
2024-01-07T06:00:33.936Z,6.02
2024-01-07T06:03:02.248Z,6.22
2024-01-07T06:05:31.165Z,5.32
2024-01-07T06:07:59.206Z,5.16
2024-01-07T06:10:27.668Z,4.93
2024-01-07T06:12:55.724Z,4.95
2024-01-07T06:15:23.715Z,4.73
2024-01-07T06:17:51.726Z,5.03
2024-01-07T06:20:19.881Z,5.06
2024-01-07T06:22:47.883Z,4.82
2024-01-07T06:25:15.830Z,4.71
2024-01-07T06:27:44.541Z,4.84
2024-01-07T06:30:13.021Z,5.00
2024-01-07T06:32:41.123Z,4.94
2024-01-07T06:35:09.399Z,5.09
2024-01-07T06:37:37.338Z,5.02
2024-01-07T06:40:05.678Z,4.62
2024-01-07T06:42:33.736Z,4.46
2024-01-07T06:45:01.708Z,4.75
2024-01-07T06:47:29.631Z,6.15
2024-01-07T06:49:57.724Z,6.32
2024-01-07T06:52:25.733Z,5.43
2024-01-07T06:54:53.666Z,5.07
2024-01-07T06:57:21.701Z,5.16
2024-01-07T06:59:49.701Z,4.75
2024-01-07T07:02:17.585Z,4.77
2024-01-07T07:04:45.661Z,5.19
2024-01-07T07:07:13.612Z,5.07
2024-01-07T07:09:41.715Z,5.04
2024-01-07T07:12:10.016Z,5.05
2024-01-07T07:14:37.893Z,5.41
2024-01-07T07:17:05.917Z,5.26
2024-01-07T07:19:34.078Z,5.52
2024-01-07T07:22:02.169Z,5.76
2024-01-07T07:24:30.351Z,5.25
2024-01-07T07:26:58.286Z,5.93
2024-01-07T07:29:26.224Z,5.91
2024-01-07T07:31:54.300Z,5.37
2024-01-07T07:34:22.498Z,4.95
2024-01-07T07:36:50.542Z,4.98
2024-01-07T07:39:18.611Z,5.00
2024-01-07T07:41:46.513Z,5.15
2024-01-07T07:44:14.502Z,5.26
2024-01-07T07:46:42.507Z,5.21
2024-01-07T07:49:10.472Z,5.46
2024-01-07T07:51:38.720Z,5.30
2024-01-07T07:54:06.739Z,5.98
2024-01-07T07:56:34.724Z,6.44
2024-01-07T07:59:03.802Z,6.50
2024-01-07T08:01:32.373Z,6.39
2024-01-07T08:04:00.498Z,8.35
2024-01-07T08:06:28.498Z,8.85
2024-01-07T08:08:56.532Z,7.14
2024-01-07T08:11:24.502Z,6.11
2024-01-07T08:13:52.390Z,6.02
2024-01-07T08:16:20.429Z,8.93
2024-01-07T08:18:48.397Z,11.55
2024-01-07T08:21:16.427Z,12.45
2024-01-07T08:23:44.622Z,10.03
2024-01-07T08:26:13.955Z,7.92
2024-01-07T08:28:42.334Z,7.83
2024-01-07T08:31:10.621Z,7.39
2024-01-07T08:33:38.886Z,8.80
2024-01-07T08:36:07.789Z,7.71
2024-01-07T08:38:36.717Z,8.18
2024-01-07T08:41:05.538Z,7.13
2024-01-07T08:43:33.512Z,6.13
2024-01-07T08:46:01.902Z,6.58
2024-01-07T08:48:30.192Z,7.05
2024-01-07T08:50:58.578Z,8.47
2024-01-07T08:53:26.833Z,8.62
2024-01-07T08:55:54.753Z,9.78
2024-01-07T08:58:22.741Z,9.49
2024-01-07T09:00:50.908Z,12.46
2024-01-07T09:03:19.257Z,11.91
2024-01-07T09:05:47.394Z,12.06
2024-01-07T09:08:16.074Z,11.01
2024-01-07T09:10:44.019Z,12.08
2024-01-07T09:13:12.106Z,12.30
2024-01-07T09:15:40.342Z,11.00
2024-01-07T09:18:08.814Z,9.13
2024-01-07T09:20:37.052Z,7.27
2024-01-07T09:23:05.188Z,6.45
2024-01-07T09:25:33.092Z,5.88
2024-01-07T09:28:01.995Z,6.00
2024-01-07T09:30:30.088Z,6.38
2024-01-07T09:32:58.201Z,6.30
2024-01-07T09:35:26.732Z,7.42
2024-01-07T09:37:54.600Z,7.96
2024-01-07T09:40:22.568Z,8.14
2024-01-07T09:42:51.514Z,7.80
2024-01-07T09:45:20.101Z,8.82
2024-01-07T09:47:48.163Z,8.06
2024-01-07T09:50:17.642Z,7.69
2024-01-07T09:52:46.291Z,9.50
2024-01-07T09:55:23.825Z,9.42
2024-01-07T09:57:51.863Z,7.69
2024-01-07T10:00:19.845Z,6.24
2024-01-07T10:02:48.005Z,6.16
2024-01-07T10:05:15.895Z,5.69
2024-01-07T10:07:43.770Z,5.50
2024-01-07T10:10:16.057Z,5.24
2024-01-07T10:12:48.332Z,5.16
2024-01-07T10:15:16.542Z,6.18
2024-01-07T10:17:44.770Z,5.78
2024-01-07T10:20:14.081Z,5.54
2024-01-07T10:22:42.000Z,5.99
2024-01-07T10:25:10.228Z,6.15
2024-01-07T10:27:39.365Z,5.93
2024-01-07T10:30:07.792Z,6.17
2024-01-07T10:32:39.686Z,5.99
2024-01-07T10:35:15.522Z,7.17
2024-01-07T10:37:44.359Z,6.90
2024-01-07T10:40:13.642Z,6.89
2024-01-07T10:42:42.080Z,6.46
2024-01-07T10:45:12.035Z,6.25
2024-01-07T10:47:42.201Z,6.16
2024-01-07T10:50:13.538Z,6.77
2024-01-07T10:52:41.819Z,6.53
2024-01-07T10:55:11.506Z,6.28
2024-01-07T10:57:49.051Z,6.55
2024-01-07T11:00:21.126Z,6.40
2024-01-07T11:03:16.052Z,7.29
2024-01-07T11:05:49.909Z,7.48
2024-01-07T11:08:28.174Z,7.59
2024-01-07T11:11:16.340Z,7.55
2024-01-07T11:13:45.207Z,7.88
2024-01-07T11:16:13.419Z,7.97
2024-01-07T11:18:47.709Z,7.29
2024-01-07T11:21:23.264Z,8.11
2024-01-07T11:23:52.457Z,8.36
2024-01-07T11:26:24.748Z,8.90
2024-01-07T11:29:00.075Z,8.49
2024-01-07T11:31:39.951Z,8.72
2024-01-07T11:34:09.475Z,8.83
2024-01-07T11:36:38.523Z,8.74
2024-01-07T11:39:10.848Z,9.19
2024-01-07T11:41:41.291Z,9.26
2024-01-07T11:44:12.511Z,8.86
2024-01-07T11:46:40.573Z,9.09
2024-01-07T11:49:10.404Z,8.73
2024-01-07T11:51:39.148Z,9.26
2024-01-07T11:54:08.362Z,8.96
2024-01-07T11:56:37.524Z,9.23
2024-01-07T11:59:06.247Z,8.76
2024-01-07T12:01:34.203Z,9.86
2024-01-07T12:04:02.426Z,10.15
2024-01-07T12:06:31.292Z,10.45
2024-01-07T12:08:59.294Z,10.29
2024-01-07T12:11:28.095Z,10.80
2024-01-07T12:13:56.312Z,10.08
2024-01-07T12:16:24.328Z,8.88
2024-01-07T12:18:52.329Z,8.27
2024-01-07T12:21:23.622Z,7.44
2024-01-07T12:23:52.340Z,7.62
2024-01-07T12:26:20.561Z,7.53
2024-01-07T12:28:55.354Z,7.39
2024-01-07T12:31:23.539Z,7.27
2024-01-07T12:33:52.513Z,7.20
2024-01-07T12:36:24.643Z,7.14
2024-01-07T12:38:56.921Z,7.38
2024-01-07T12:41:25.610Z,7.47
2024-01-07T12:43:53.666Z,7.92
2024-01-07T12:46:21.809Z,7.56
2024-01-07T12:48:50.124Z,8.09
2024-01-07T12:51:20.743Z,8.05
2024-01-07T12:53:50.853Z,7.79
2024-01-07T12:56:18.725Z,7.94
2024-01-07T12:58:46.665Z,7.82
2024-01-07T13:01:15.392Z,7.60
2024-01-07T13:03:43.825Z,7.50
2024-01-07T13:06:12.059Z,7.76
2024-01-07T13:08:40.110Z,7.77
2024-01-07T13:11:10.072Z,7.61
2024-01-07T13:13:38.548Z,7.00
2024-01-07T13:16:06.815Z,7.15
2024-01-07T13:18:34.878Z,7.25
2024-01-07T13:21:02.925Z,7.23
2024-01-07T13:23:31.059Z,7.37
2024-01-07T13:25:58.964Z,6.99
2024-01-07T13:28:26.938Z,7.40
2024-01-07T13:30:55.222Z,7.60
2024-01-07T13:33:23.310Z,7.63
2024-01-07T13:35:51.278Z,7.91
2024-01-07T13:38:19.308Z,7.59
2024-01-07T13:40:47.825Z,7.54
2024-01-07T13:43:16.674Z,7.49
2024-01-07T13:45:44.985Z,8.06
2024-01-07T13:48:13.001Z,8.15
2024-01-07T13:50:40.953Z,7.81
2024-01-07T13:53:09.286Z,7.96
2024-01-07T13:55:37.244Z,7.77
2024-01-07T13:58:05.704Z,7.94
2024-01-07T14:00:33.980Z,8.12
2024-01-07T14:03:02.681Z,8.02
2024-01-07T14:05:30.622Z,8.21
2024-01-07T14:07:58.762Z,7.87
2024-01-07T14:10:26.686Z,8.23
2024-01-07T14:12:54.718Z,8.14
2024-01-07T14:15:22.751Z,7.89
2024-01-07T14:17:50.810Z,8.31
2024-01-07T14:20:19.317Z,9.14
2024-01-07T14:22:47.358Z,9.31
2024-01-07T14:25:15.762Z,9.58
2024-01-07T14:27:44.841Z,9.97
2024-01-07T14:30:14.392Z,9.85
2024-01-07T14:32:42.783Z,10.14
2024-01-07T14:35:13.357Z,9.23
2024-01-07T14:37:41.927Z,10.02
2024-01-07T14:40:10.180Z,9.71
2024-01-07T14:42:38.212Z,10.19
2024-01-07T14:45:06.884Z,10.24
2024-01-07T14:47:35.580Z,9.77
2024-01-07T14:50:06.056Z,9.06
2024-01-07T14:52:35.653Z,9.31
2024-01-07T14:55:03.770Z,9.28
2024-01-07T14:57:32.124Z,10.01
2024-01-07T15:00:00.263Z,9.22
2024-01-07T15:02:28.276Z,9.96
2024-01-07T15:04:56.510Z,11.30
2024-01-07T15:07:26.090Z,10.21
2024-01-07T15:09:54.217Z,9.80
2024-01-07T15:12:23.590Z,10.02
2024-01-07T15:14:51.628Z,9.85
2024-01-07T15:17:19.800Z,10.12
2024-01-07T15:19:47.814Z,9.87
2024-01-07T15:22:16.076Z,10.31
2024-01-07T15:24:44.028Z,10.63
2024-01-07T15:27:11.937Z,10.38
2024-01-07T15:29:39.985Z,9.95
2024-01-07T15:32:07.991Z,10.60
2024-01-07T15:34:36.168Z,10.43
2024-01-07T15:37:04.518Z,10.53
2024-01-07T15:39:32.653Z,10.89
2024-01-07T15:42:01.228Z,10.52
2024-01-07T15:44:29.341Z,10.74
2024-01-07T15:46:57.378Z,10.61
2024-01-07T15:49:25.381Z,11.02
2024-01-07T15:51:53.600Z,11.33
2024-01-07T15:54:21.503Z,11.58
2024-01-07T15:56:49.484Z,12.28
2024-01-07T15:59:18.822Z,12.43
2024-01-07T16:01:50.326Z,11.97
2024-01-07T16:04:22.820Z,12.48
2024-01-07T16:06:52.608Z,12.48
2024-01-07T16:09:21.158Z,14.15
2024-01-07T16:11:49.508Z,14.55
2024-01-07T16:14:26.217Z,13.38
2024-01-07T16:16:54.542Z,14.34
2024-01-07T16:19:22.597Z,14.37
2024-01-07T16:21:50.928Z,13.48
2024-01-07T16:24:18.862Z,13.22
2024-01-07T16:26:47.374Z,13.84
2024-01-07T16:29:16.825Z,13.04
2024-01-07T16:31:46.092Z,13.30
2024-01-07T16:34:14.356Z,13.61
2024-01-07T16:36:43.492Z,12.75
2024-01-07T16:39:11.523Z,13.89
2024-01-07T16:41:39.502Z,14.59
2024-01-07T16:44:10.015Z,14.22
2024-01-07T16:46:38.055Z,15.50
2024-01-07T16:51:37.162Z,14.27
2024-01-07T16:54:05.624Z,13.88
2024-01-07T16:56:33.624Z,13.09
2024-01-07T16:59:02.178Z,14.05
2024-01-07T17:01:30.160Z,14.48
2024-01-07T17:03:58.191Z,14.29
2024-01-07T17:06:27.414Z,14.29
2024-01-07T17:08:55.359Z,14.56
2024-01-07T17:11:23.726Z,14.21
2024-01-07T17:13:51.914Z,14.49
2024-01-07T17:16:21.445Z,15.04
2024-01-07T17:18:49.551Z,15.17
2024-01-07T17:21:18.484Z,14.56
2024-01-07T17:23:52.192Z,19.65
2024-01-07T17:26:20.627Z,16.12
2024-01-07T17:28:50.091Z,16.16
2024-01-07T17:31:18.140Z,16.17
2024-01-07T17:33:46.350Z,16.57
2024-01-07T17:36:16.667Z,16.72
2024-01-07T17:38:44.738Z,16.86
2024-01-07T17:41:13.732Z,16.98
2024-01-07T17:43:42.126Z,16.59
2024-01-07T17:46:10.901Z,17.60
2024-01-07T17:48:41.786Z,16.44
2024-01-07T17:51:09.743Z,17.28
2024-01-07T17:53:42.040Z,17.18
2024-01-07T17:56:19.001Z,18.21
2024-01-07T17:58:47.752Z,16.97
2024-01-07T18:01:15.814Z,16.66
2024-01-07T18:03:44.080Z,16.57
2024-01-07T18:06:12.098Z,17.33
2024-01-07T18:08:46.662Z,16.96
2024-01-07T18:11:18.403Z,16.87
2024-01-07T18:13:46.536Z,17.74
2024-01-07T18:16:14.983Z,18.49
2024-01-07T18:18:43.352Z,18.24
2024-01-07T18:21:15.126Z,17.76
2024-01-07T18:23:43.805Z,18.34
2024-01-07T18:26:12.104Z,18.80
2024-01-07T18:28:40.951Z,19.24
2024-01-07T18:31:09.214Z,18.86
2024-01-07T18:33:37.352Z,19.97
2024-01-07T18:36:09.835Z,19.14
2024-01-07T18:38:39.087Z,19.42
2024-01-07T18:41:07.119Z,19.44
2024-01-07T18:43:35.260Z,19.67
2024-01-07T18:46:03.969Z,19.23
2024-01-07T18:48:32.293Z,19.40
2024-01-07T18:51:03.567Z,19.57
2024-01-07T18:53:31.515Z,16.30
2024-01-07T18:55:59.508Z,15.67
2024-01-07T18:58:28.668Z,15.62
2024-01-07T19:00:56.723Z,15.86
2024-01-07T19:03:25.090Z,16.48
2024-01-07T19:05:53.729Z,16.16
2024-01-07T19:08:21.829Z,16.12
2024-01-07T19:10:50.066Z,15.64
2024-01-07T19:13:18.305Z,15.83
2024-01-07T19:15:46.591Z,15.64
2024-01-07T19:18:14.826Z,15.76
2024-01-07T19:20:43.288Z,15.35
2024-01-07T19:23:11.424Z,15.43
2024-01-07T19:25:39.648Z,16.11
2024-01-07T19:28:07.734Z,15.34
2024-01-07T19:30:35.776Z,15.25
2024-01-07T19:33:04.685Z,15.93
2024-01-07T19:35:33.155Z,15.91
2024-01-07T19:38:01.245Z,15.38
2024-01-07T19:40:30.298Z,15.13
2024-01-07T19:42:58.576Z,14.54
2024-01-07T19:45:29.615Z,14.91
2024-01-07T19:47:58.576Z,14.94
2024-01-07T19:50:27.168Z,14.01
2024-01-07T19:52:55.478Z,14.26
2024-01-07T19:55:23.720Z,13.42
2024-01-07T19:57:51.693Z,13.50
2024-01-07T20:00:19.993Z,12.63
2024-01-07T20:02:50.478Z,12.57
2024-01-07T20:05:18.723Z,12.67
2024-01-07T20:07:47.045Z,12.15
2024-01-07T20:10:15.637Z,12.05
2024-01-07T20:12:43.547Z,11.11
2024-01-07T20:15:12.341Z,11.11
2024-01-07T20:17:40.774Z,10.99
2024-01-07T20:20:11.552Z,10.84
2024-01-07T20:22:39.713Z,10.52
2024-01-07T20:25:08.860Z,10.72
2024-01-07T20:27:36.910Z,12.55
2024-01-07T20:30:07.067Z,11.51
2024-01-07T20:32:36.858Z,10.47
2024-01-07T20:35:05.423Z,9.67
2024-01-07T20:37:33.560Z,9.42
2024-01-07T20:40:01.586Z,9.52
2024-01-07T20:42:38.997Z,9.65
2024-01-07T20:45:10.556Z,9.61
2024-01-07T20:47:38.894Z,9.39
2024-01-07T20:50:08.506Z,9.41
2024-01-07T20:52:36.602Z,9.07
2024-01-07T20:55:04.847Z,9.28
2024-01-07T20:57:32.887Z,9.45
2024-01-07T21:00:01.121Z,9.40
2024-01-07T21:02:29.229Z,9.55
2024-01-07T21:04:57.604Z,9.78
2024-01-07T21:07:31.832Z,9.83
2024-01-07T21:10:00.915Z,9.75
2024-01-07T21:12:28.857Z,9.43
2024-01-07T21:14:58.590Z,9.03
2024-01-07T21:17:26.540Z,9.11
2024-01-07T21:19:54.576Z,9.20
2024-01-07T21:22:22.544Z,9.76
2024-01-07T21:24:50.442Z,9.43
2024-01-07T21:27:18.567Z,9.89
2024-01-07T21:29:49.319Z,9.11
2024-01-07T21:32:17.445Z,9.01
2024-01-07T21:34:45.612Z,9.33
2024-01-07T21:37:13.598Z,8.95
2024-01-07T21:39:43.675Z,9.58
2024-01-07T21:42:12.946Z,8.99
2024-01-07T21:44:40.982Z,9.34
2024-01-07T21:47:09.315Z,8.87
2024-01-07T21:49:45.534Z,8.98
2024-01-07T21:52:13.974Z,9.13
2024-01-07T21:54:42.842Z,9.25
2024-01-07T21:57:11.316Z,9.10
2024-01-07T21:59:39.253Z,9.36
2024-01-07T22:02:07.774Z,9.30
2024-01-07T22:04:37.459Z,9.09
2024-01-07T22:07:05.869Z,9.54
2024-01-07T22:09:34.523Z,9.47
2024-01-07T22:12:02.551Z,9.26
2024-01-07T22:14:30.837Z,9.51
2024-01-07T22:16:58.811Z,9.45
2024-01-07T22:19:27.535Z,9.49
2024-01-07T22:21:55.488Z,9.50
2024-01-07T22:24:24.077Z,9.18
2024-01-07T22:26:52.285Z,9.45
2024-01-07T22:29:22.138Z,9.01
2024-01-07T22:31:51.158Z,8.84
2024-01-07T22:34:19.563Z,9.00
2024-01-07T22:36:47.532Z,8.84
2024-01-07T22:39:16.361Z,9.18
2024-01-07T22:41:45.635Z,9.26
2024-01-07T22:44:16.362Z,9.13
2024-01-07T22:46:46.898Z,9.15
2024-01-07T22:49:15.150Z,9.29
2024-01-07T22:51:46.962Z,9.34
2024-01-07T22:54:14.947Z,9.25
2024-01-07T22:56:46.830Z,9.34
2024-01-07T22:59:19.396Z,9.17
2024-01-07T23:01:47.760Z,9.53
2024-01-07T23:04:15.723Z,9.53
2024-01-07T23:06:43.713Z,9.22
2024-01-07T23:09:12.363Z,9.41
2024-01-07T23:11:40.412Z,9.11
2024-01-07T23:14:08.753Z,9.41
2024-01-07T23:16:36.962Z,8.85
2024-01-07T23:19:05.852Z,8.79
2024-01-07T23:21:33.926Z,8.90
2024-01-07T23:24:02.347Z,8.68
2024-01-07T23:26:30.579Z,8.66
2024-01-07T23:28:58.730Z,8.82
2024-01-07T23:31:27.006Z,8.89
2024-01-07T23:33:56.747Z,8.95
2024-01-07T23:36:25.122Z,9.04
2024-01-07T23:38:53.386Z,8.21
2024-01-07T23:41:21.389Z,8.24
2024-01-07T23:43:52.016Z,8.76
2024-01-07T23:46:21.070Z,8.49
2024-01-07T23:48:49.400Z,8.70
2024-01-07T23:51:17.690Z,8.36
2024-01-07T23:53:45.592Z,7.99
2024-01-07T23:56:13.730Z,8.06
2024-01-07T23:58:41.654Z,8.58
